createdAt,value
2023-06-09T00:02:08.724Z,99947.60
2023-06-09T00:04:36.078Z,99948.00
2023-06-09T00:07:04.255Z,99940.20
2023-06-09T00:09:31.584Z,99936.80
2023-06-09T00:11:59.190Z,99935.40
2023-06-09T00:14:26.324Z,99933.60
2023-06-09T00:16:53.619Z,99932.60
2023-06-09T00:19:22.319Z,99926.60
2023-06-09T00:21:52.320Z,99929.00
2023-06-09T00:24:21.869Z,99928.40
2023-06-09T00:26:50.122Z,99928.60
2023-06-09T00:29:19.277Z,99933.80
2023-06-09T00:31:47.193Z,99935.40
2023-06-09T00:34:14.773Z,99935.60
2023-06-09T00:36:42.007Z,99932.80
2023-06-09T00:39:09.401Z,99934.60
2023-06-09T00:41:37.914Z,99931.20
2023-06-09T00:44:05.849Z,99930.40
2023-06-09T00:46:34.759Z,99930.80
2023-06-09T00:49:02.051Z,99929.40
2023-06-09T00:51:30.492Z,99929.20
2023-06-09T00:53:58.224Z,99930.00
2023-06-09T00:56:26.555Z,99924.60
2023-06-09T00:58:54.361Z,99926.40
2023-06-09T01:01:21.661Z,99925.40
2023-06-09T01:03:49.476Z,99929.00
2023-06-09T01:06:39.426Z,99927.80
2023-06-09T01:09:45.244Z,99921.40
2023-06-09T01:12:21.166Z,99923.00
2023-06-09T01:15:14.582Z,99918.20
2023-06-09T01:17:43.590Z,99923.40
2023-06-09T01:20:13.224Z,99921.40
2023-06-09T01:22:52.983Z,99921.40
2023-06-09T01:25:36.326Z,99921.60
2023-06-09T01:28:18.766Z,99923.00
2023-06-09T01:30:47.368Z,99921.00
2023-06-09T01:33:19.655Z,99921.40
2023-06-09T01:35:47.332Z,99913.60
2023-06-09T01:38:15.933Z,99912.00
2023-06-09T01:40:44.410Z,99911.00
2023-06-09T01:43:12.522Z,99910.00
2023-06-09T01:45:39.710Z,99907.80
2023-06-09T01:48:40.381Z,99904.00
2023-06-09T01:51:50.384Z,99905.80
2023-06-09T01:54:23.978Z,99904.20
2023-06-09T01:57:18.816Z,99905.00
2023-06-09T01:59:52.261Z,99905.20
2023-06-09T02:02:21.615Z,99905.60
2023-06-09T02:04:52.078Z,99904.40
2023-06-09T02:07:20.496Z,99905.00
2023-06-09T02:09:50.695Z,99903.80
2023-06-09T02:12:20.210Z,99904.40
2023-06-09T02:14:47.257Z,99902.60
2023-06-09T02:17:14.559Z,99909.40
2023-06-09T02:19:42.125Z,99912.00
2023-06-09T02:22:09.316Z,99910.80
2023-06-09T02:24:36.563Z,99915.80
2023-06-09T02:27:04.052Z,99917.20
2023-06-09T02:29:32.183Z,99917.80
2023-06-09T02:32:00.699Z,99922.20
2023-06-09T02:34:30.162Z,99921.60
2023-06-09T02:37:01.312Z,99920.80
2023-06-09T02:39:28.685Z,99924.20
2023-06-09T02:41:55.726Z,99927.40
2023-06-09T02:44:22.854Z,99929.20
2023-06-09T02:46:50.475Z,99928.40
2023-06-09T02:49:17.602Z,99935.80
2023-06-09T02:51:44.900Z,99932.00
2023-06-09T02:54:14.268Z,99933.20
2023-06-09T02:56:43.178Z,99935.40
2023-06-09T02:59:11.197Z,99938.80
2023-06-09T03:01:39.117Z,99940.00
2023-06-09T03:04:09.780Z,99946.60
2023-06-09T03:06:43.903Z,99942.60
2023-06-09T03:09:13.539Z,99940.40
2023-06-09T03:11:41.044Z,99937.00
2023-06-09T03:14:08.709Z,99936.80
2023-06-09T03:16:36.074Z,99937.00
2023-06-09T03:19:03.888Z,99939.00
2023-06-09T03:21:35.998Z,99942.00
2023-06-09T03:24:05.295Z,99942.40
2023-06-09T03:26:32.618Z,99939.40
2023-06-09T03:29:00.030Z,99937.60
2023-06-09T03:31:27.698Z,99930.80
2023-06-09T03:33:57.060Z,99931.40
2023-06-09T03:36:25.073Z,99936.20
2023-06-09T03:38:53.700Z,99936.60
2023-06-09T03:41:22.064Z,99943.20
2023-06-09T03:43:49.628Z,99941.60
2023-06-09T03:46:17.129Z,99935.40
2023-06-09T03:48:44.411Z,99936.80
2023-06-09T03:51:12.199Z,99942.80
2023-06-09T03:53:39.555Z,99944.40
2023-06-09T03:56:07.859Z,99945.20
2023-06-09T03:58:35.556Z,99944.80
2023-06-09T04:01:02.724Z,99945.40
2023-06-09T04:03:30.876Z,99946.20
2023-06-09T04:05:57.984Z,99954.40
2023-06-09T04:08:26.758Z,99950.80
2023-06-09T04:10:53.939Z,99949.20
2023-06-09T04:13:21.350Z,99949.00
2023-06-09T04:15:48.677Z,99948.60
2023-06-09T04:18:16.736Z,99947.60
2023-06-09T04:20:44.062Z,99945.60
2023-06-09T04:23:11.292Z,99946.60
2023-06-09T04:25:44.474Z,99938.40
2023-06-09T04:28:15.192Z,99940.40
2023-06-09T04:30:42.804Z,99943.20
2023-06-09T04:33:13.026Z,99942.20
2023-06-09T04:35:41.758Z,99945.00
2023-06-09T04:38:10.739Z,99945.40
2023-06-09T04:40:40.065Z,99949.20
2023-06-09T04:43:08.634Z,99953.60
2023-06-09T04:45:36.432Z,99954.00
2023-06-09T04:48:08.022Z,99958.40
2023-06-09T04:50:36.664Z,99955.20
2023-06-09T04:53:07.935Z,99959.20
2023-06-09T04:55:39.456Z,99961.60
2023-06-09T04:58:06.920Z,99961.40
2023-06-09T05:00:36.058Z,99960.60
2023-06-09T05:03:04.011Z,99963.60
2023-06-09T05:05:31.646Z,99962.00
2023-06-09T05:07:59.775Z,99955.00
2023-06-09T05:10:28.170Z,99952.20
2023-06-09T05:12:55.889Z,99951.40
2023-06-09T05:15:24.095Z,99949.80
2023-06-09T05:17:51.667Z,99946.80
2023-06-09T05:20:19.621Z,99947.20
2023-06-09T05:22:47.101Z,99942.80
2023-06-09T05:25:17.587Z,99949.40
2023-06-09T05:27:45.342Z,99950.80
2023-06-09T05:30:12.823Z,99954.40
2023-06-09T05:32:40.618Z,99963.40
2023-06-09T05:35:08.741Z,99962.40
2023-06-09T05:37:40.623Z,99963.00
2023-06-09T05:40:08.648Z,99966.40
2023-06-09T05:42:36.034Z,99964.60
2023-06-09T05:45:03.348Z,99969.20
2023-06-09T05:47:31.338Z,99969.80
2023-06-09T05:49:58.468Z,99969.40
2023-06-09T05:52:28.094Z,99963.40
2023-06-09T05:54:57.660Z,99962.00
2023-06-09T05:57:26.428Z,99962.40
2023-06-09T05:59:53.632Z,99960.80
2023-06-09T06:02:21.002Z,99960.20
2023-06-09T06:04:48.137Z,99961.00
2023-06-09T06:07:15.897Z,99961.00
2023-06-09T06:09:42.945Z,99961.00
2023-06-09T06:12:11.544Z,99960.80
2023-06-09T06:14:38.664Z,99961.40
2023-06-09T06:17:05.877Z,99962.20
2023-06-09T06:19:33.024Z,99962.40
2023-06-09T06:22:00.189Z,99965.20
2023-06-09T06:24:27.489Z,99966.80
2023-06-09T06:26:54.631Z,99968.00
2023-06-09T06:29:21.941Z,99966.80
2023-06-09T06:31:49.245Z,99965.60
2023-06-09T06:34:16.477Z,99962.80
2023-06-09T06:36:43.540Z,99963.00
2023-06-09T06:39:12.892Z,99963.40
2023-06-09T06:41:40.541Z,99964.20
2023-06-09T06:44:07.648Z,99957.80
2023-06-09T06:46:34.976Z,99959.20
2023-06-09T06:49:02.425Z,99957.00
2023-06-09T06:51:29.578Z,99960.40
2023-06-09T06:53:56.875Z,99963.40
2023-06-09T06:56:25.466Z,99964.80
2023-06-09T06:58:53.125Z,99961.40
2023-06-09T07:01:22.349Z,99962.40
2023-06-09T07:03:51.463Z,99959.80
2023-06-09T07:06:20.006Z,99966.00
2023-06-09T07:08:47.158Z,99966.40
2023-06-09T07:11:14.308Z,99959.20
2023-06-09T07:13:41.560Z,99964.60
2023-06-09T07:16:09.016Z,99960.20
2023-06-09T07:18:37.106Z,99969.00
2023-06-09T07:21:05.495Z,99965.40
2023-06-09T07:23:32.980Z,99966.40
2023-06-09T07:26:00.150Z,99963.00
2023-06-09T07:28:27.765Z,99965.20
2023-06-09T07:30:55.020Z,99962.60
2023-06-09T07:33:22.245Z,99954.20
2023-06-09T07:35:49.870Z,99958.00
2023-06-09T07:38:18.376Z,99957.60
2023-06-09T07:40:45.836Z,99954.40
2023-06-09T07:43:12.998Z,99951.80
2023-06-09T07:45:40.212Z,99951.60
2023-06-09T07:48:07.535Z,99954.60
2023-06-09T07:50:43.398Z,99957.80
2023-06-09T07:53:22.486Z,99953.00
2023-06-09T07:55:49.947Z,99952.80
2023-06-09T07:58:17.060Z,99952.00
2023-06-09T08:00:44.228Z,99952.20
2023-06-09T08:03:11.526Z,99956.60
2023-06-09T08:05:38.715Z,99958.40
2023-06-09T08:08:06.394Z,99954.80
2023-06-09T08:10:33.655Z,99958.60
2023-06-09T08:13:00.786Z,99953.40
2023-06-09T08:15:27.971Z,99957.80
2023-06-09T08:17:55.239Z,99954.80
2023-06-09T08:20:22.456Z,99955.00
2023-06-09T08:22:49.756Z,99952.40
2023-06-09T08:25:16.896Z,99953.00
2023-06-09T08:27:44.042Z,99951.40
2023-06-09T08:30:11.909Z,99952.40
2023-06-09T08:32:40.746Z,99955.40
2023-06-09T08:35:09.102Z,99946.60
2023-06-09T08:37:37.023Z,99948.60
2023-06-09T08:40:08.826Z,99947.60
2023-06-09T08:42:37.676Z,99947.60
2023-06-09T08:45:08.641Z,99942.00
2023-06-09T08:47:37.383Z,99935.00
2023-06-09T08:50:08.049Z,99933.80
2023-06-09T08:52:35.528Z,99931.80
2023-06-09T08:55:04.602Z,99922.80
2023-06-09T08:57:32.996Z,99918.60
2023-06-09T09:00:00.312Z,99927.40
2023-06-09T09:02:27.449Z,99932.40
2023-06-09T09:04:55.642Z,99926.60
2023-06-09T09:07:23.625Z,99922.80
2023-06-09T09:09:50.777Z,99914.00
2023-06-09T09:12:17.930Z,99912.20
2023-06-09T09:14:45.271Z,99908.20
2023-06-09T09:17:14.034Z,99911.20
2023-06-09T09:19:45.915Z,99914.80
2023-06-09T09:22:13.235Z,99911.80
2023-06-09T09:24:50.364Z,99908.80
2023-06-09T09:27:22.206Z,99905.60
2023-06-09T09:29:49.493Z,99908.40
2023-06-09T09:32:17.595Z,99911.20
2023-06-09T09:34:45.811Z,99906.00
2023-06-09T09:37:16.068Z,99897.20
2023-06-09T09:39:53.421Z,99891.80
2023-06-09T09:42:21.765Z,99891.00
2023-06-09T09:44:52.417Z,99890.20
2023-06-09T09:47:20.730Z,99887.60
2023-06-09T09:49:54.112Z,99888.40
2023-06-09T09:52:29.079Z,99885.20
2023-06-09T09:54:59.349Z,99880.00
2023-06-09T09:57:31.019Z,99879.80
2023-06-09T10:00:12.314Z,99881.20
2023-06-09T10:02:46.194Z,99881.80
2023-06-09T10:05:16.845Z,99881.20
2023-06-09T10:07:49.025Z,99872.20
2023-06-09T10:10:16.756Z,99878.80
2023-06-09T10:12:45.341Z,99875.20
2023-06-09T10:15:13.994Z,99873.80
2023-06-09T10:17:43.724Z,99870.80
2023-06-09T10:20:11.581Z,99864.60
2023-06-09T10:22:40.600Z,99861.60
2023-06-09T10:25:09.197Z,99862.00
2023-06-09T10:27:36.591Z,99862.40
2023-06-09T10:30:05.164Z,99852.80
2023-06-09T10:32:36.605Z,99857.80
2023-06-09T10:35:06.214Z,99857.00
2023-06-09T10:37:35.777Z,99852.40
2023-06-09T10:40:27.342Z,99858.20
2023-06-09T10:43:09.496Z,99861.20
2023-06-09T10:45:56.555Z,99854.40
2023-06-09T10:48:46.888Z,99852.40
2023-06-09T10:51:29.122Z,99856.80
2023-06-09T10:54:08.196Z,99852.00
2023-06-09T10:56:36.923Z,99850.60
2023-06-09T10:59:04.545Z,99849.00
2023-06-09T11:01:33.201Z,99841.60
2023-06-09T11:04:00.328Z,99840.00
2023-06-09T11:06:27.693Z,99839.40
2023-06-09T11:09:13.001Z,99837.60
2023-06-09T11:11:54.574Z,99843.60
2023-06-09T11:14:46.021Z,99836.40
2023-06-09T11:17:17.088Z,99836.20
2023-06-09T11:19:44.501Z,99835.20
2023-06-09T11:22:12.943Z,99831.20
2023-06-09T11:24:50.242Z,99829.60
2023-06-09T11:27:22.075Z,99826.20
2023-06-09T11:30:08.120Z,99818.80
2023-06-09T11:32:57.022Z,99823.80
2023-06-09T11:35:33.105Z,99817.40
2023-06-09T11:38:06.005Z,99817.80
2023-06-09T11:40:37.146Z,99812.80
2023-06-09T11:43:08.176Z,99808.60
2023-06-09T11:45:37.588Z,99813.20
2023-06-09T11:48:07.221Z,99812.80
2023-06-09T11:50:45.007Z,99805.80
2023-06-09T11:53:17.442Z,99802.20
2023-06-09T11:55:50.462Z,99807.80
2023-06-09T11:58:19.517Z,99805.40
2023-06-09T12:00:48.191Z,99799.20
2023-06-09T12:03:21.906Z,99798.80
2023-06-09T12:05:52.424Z,99793.40
2023-06-09T12:08:19.703Z,99791.00
2023-06-09T12:10:47.122Z,99786.60
2023-06-09T12:13:14.628Z,99787.20
2023-06-09T12:15:46.108Z,99781.20
2023-06-09T12:18:13.214Z,99786.60
2023-06-09T12:20:41.804Z,99784.20
2023-06-09T12:23:15.055Z,99779.20
2023-06-09T12:25:47.866Z,99777.60
2023-06-09T12:28:30.465Z,99772.40
2023-06-09T12:31:37.296Z,99764.20
2023-06-09T12:34:04.776Z,99763.60
2023-06-09T12:36:41.647Z,99764.40
2023-06-09T12:39:35.161Z,99759.60
2023-06-09T12:42:14.392Z,99757.20
2023-06-09T12:44:41.574Z,99756.20
2023-06-09T12:47:15.703Z,99752.40
2023-06-09T12:49:44.699Z,99749.20
2023-06-09T12:52:11.882Z,99749.40
2023-06-09T12:54:39.298Z,99754.60
2023-06-09T12:57:06.889Z,99752.20
2023-06-09T12:59:34.208Z,99750.00
2023-06-09T13:02:01.620Z,99753.20
2023-06-09T13:04:29.117Z,99745.00
2023-06-09T13:06:56.408Z,99741.60
2023-06-09T13:09:23.658Z,99736.60
2023-06-09T13:11:50.918Z,99738.00
2023-06-09T13:14:17.981Z,99734.00
2023-06-09T13:16:45.088Z,99731.00
2023-06-09T13:19:12.364Z,99729.60
2023-06-09T13:21:45.045Z,99718.60
2023-06-09T13:24:13.676Z,99716.40
2023-06-09T13:26:41.132Z,99713.60
2023-06-09T13:29:09.718Z,99713.20
2023-06-09T13:31:37.117Z,99710.20
2023-06-09T13:34:04.353Z,99708.40
2023-06-09T13:36:31.428Z,99705.00
2023-06-09T13:38:58.660Z,99704.40
2023-06-09T13:41:31.274Z,99704.20
2023-06-09T13:44:03.379Z,99706.00
2023-06-09T13:46:30.586Z,99704.00
2023-06-09T13:48:57.961Z,99704.40
2023-06-09T13:51:25.300Z,99699.60
2023-06-09T13:53:52.402Z,99698.40
2023-06-09T13:56:20.861Z,99693.80
2023-06-09T13:58:47.961Z,99690.00
2023-06-09T14:01:15.345Z,99689.40
2023-06-09T14:03:42.814Z,99690.60
2023-06-09T14:06:10.036Z,99686.80
2023-06-09T14:08:37.291Z,99685.60
2023-06-09T14:11:06.158Z,99684.60
2023-06-09T14:13:33.445Z,99680.00
2023-06-09T14:16:00.753Z,99677.60
2023-06-09T14:18:28.111Z,99676.60
2023-06-09T14:20:55.310Z,99672.60
2023-06-09T14:23:22.414Z,99672.20
2023-06-09T14:25:49.595Z,99675.00
2023-06-09T14:28:16.934Z,99669.40
2023-06-09T14:30:44.050Z,99668.40
2023-06-09T14:33:11.437Z,99670.40
2023-06-09T14:35:38.749Z,99671.00
2023-06-09T14:38:05.905Z,99664.60
2023-06-09T14:40:36.425Z,99665.60
2023-06-09T14:43:06.705Z,99662.00
2023-06-09T14:45:34.793Z,99662.80
2023-06-09T14:48:03.479Z,99657.00
2023-06-09T14:50:38.657Z,99660.80
2023-06-09T14:53:06.709Z,99659.60
2023-06-09T14:55:48.029Z,99652.80
2023-06-09T14:58:18.446Z,99648.40
2023-06-09T15:00:49.153Z,99643.80
2023-06-09T15:03:18.027Z,99640.40
2023-06-09T15:05:45.817Z,99639.20
2023-06-09T15:08:13.182Z,99637.20
2023-06-09T15:10:42.614Z,99631.20
2023-06-09T15:13:11.014Z,99628.00
2023-06-09T15:15:38.510Z,99629.80
2023-06-09T15:18:09.199Z,99626.00
2023-06-09T15:20:37.968Z,99624.00
2023-06-09T15:23:06.326Z,99621.40
2023-06-09T15:25:37.134Z,99621.20
2023-06-09T15:28:15.099Z,99618.60
2023-06-09T15:30:45.412Z,99615.80
2023-06-09T15:33:17.772Z,99615.00
2023-06-09T15:35:48.100Z,99613.00
2023-06-09T15:38:17.054Z,99615.60
2023-06-09T15:40:46.140Z,99611.80
2023-06-09T15:43:15.194Z,99615.20
2023-06-09T15:46:07.801Z,99614.80
2023-06-09T15:48:38.264Z,99613.60
2023-06-09T15:51:05.477Z,99612.60
2023-06-09T15:53:32.633Z,99615.80
2023-06-09T15:55:59.959Z,99615.80
2023-06-09T15:58:27.083Z,99618.40
2023-06-09T16:00:54.188Z,99614.20
2023-06-09T16:03:21.581Z,99619.00
2023-06-09T16:05:49.574Z,99618.40
2023-06-09T16:08:16.984Z,99618.60
2023-06-09T16:10:48.026Z,99617.00
2023-06-09T16:13:15.628Z,99616.60
2023-06-09T16:15:42.848Z,99616.20
2023-06-09T16:18:12.503Z,99616.20
2023-06-09T16:20:43.585Z,99616.20
2023-06-09T16:23:11.895Z,99619.20
2023-06-09T16:25:39.480Z,99622.00
2023-06-09T16:28:07.512Z,99618.40
2023-06-09T16:30:38.599Z,99619.60
2023-06-09T16:33:06.575Z,99613.40
2023-06-09T16:35:34.214Z,99616.00
2023-06-09T16:38:01.905Z,99617.00
2023-06-09T16:40:29.132Z,99617.60
2023-06-09T16:42:59.108Z,99617.20
2023-06-09T16:45:26.760Z,99622.80
2023-06-09T16:47:54.569Z,99618.20
2023-06-09T16:50:22.124Z,99620.20
2023-06-09T16:55:58.500Z,99622.40
2023-06-09T16:58:25.606Z,99622.80
2023-06-09T17:00:52.998Z,99622.60
2023-06-09T17:03:20.212Z,99622.00
2023-06-09T17:05:47.456Z,99620.80
2023-06-09T17:08:14.913Z,99616.00
2023-06-09T17:10:42.261Z,99618.40
2023-06-09T17:13:09.761Z,99616.80
2023-06-09T17:15:39.390Z,99616.60
2023-06-09T17:18:06.561Z,99621.40
2023-06-09T17:20:33.969Z,99621.20
2023-06-09T17:23:02.172Z,99626.40
2023-06-09T17:25:31.026Z,99625.20
2023-06-09T17:27:58.143Z,99623.80
2023-06-09T17:30:25.316Z,99621.20
2023-06-09T17:32:52.662Z,99622.20
2023-06-09T17:35:20.048Z,99619.80
2023-06-09T17:37:47.344Z,99624.20
2023-06-09T17:40:15.207Z,99624.60
2023-06-09T17:42:42.357Z,99626.40
2023-06-09T17:45:11.792Z,99625.40
2023-06-09T17:47:39.671Z,99627.40
2023-06-09T17:50:08.154Z,99627.20
2023-06-09T17:52:35.529Z,99627.60
2023-06-09T17:55:03.937Z,99631.60
2023-06-09T17:57:32.057Z,99630.60
2023-06-09T18:00:00.439Z,99630.40
2023-06-09T18:02:27.630Z,99631.60
2023-06-09T18:04:54.785Z,99630.40
2023-06-09T18:07:22.273Z,99635.40
2023-06-09T18:09:49.448Z,99634.80
2023-06-09T18:12:17.463Z,99630.60
2023-06-09T18:14:44.986Z,99635.80
2023-06-09T18:17:12.311Z,99637.40
2023-06-09T18:19:39.621Z,99641.20
2023-06-09T18:22:06.880Z,99645.80
2023-06-09T18:24:34.415Z,99646.20
2023-06-09T18:27:01.573Z,99648.60
2023-06-09T18:29:29.358Z,99653.60
2023-06-09T18:31:57.047Z,99657.00
2023-06-09T18:34:24.095Z,99657.20
2023-06-09T18:36:51.251Z,99657.00
2023-06-09T18:39:18.535Z,99659.40
2023-06-09T18:41:45.711Z,99660.40
2023-06-09T18:44:16.008Z,99665.40
2023-06-09T18:46:43.681Z,99660.00
2023-06-09T18:49:11.391Z,99665.20
2023-06-09T18:51:38.523Z,99667.40
2023-06-09T18:54:05.722Z,99671.00
2023-06-09T18:56:33.013Z,99674.40
2023-06-09T18:59:00.479Z,99673.00
2023-06-09T19:01:27.925Z,99676.00
2023-06-09T19:03:55.345Z,99676.20
2023-06-09T19:06:22.530Z,99677.40
2023-06-09T19:08:49.746Z,99679.40
2023-06-09T19:11:17.011Z,99677.60
2023-06-09T19:13:44.170Z,99682.40
2023-06-09T19:16:11.363Z,99682.60
2023-06-09T19:18:38.459Z,99682.80
2023-06-09T19:21:05.636Z,99682.80
2023-06-09T19:23:32.986Z,99680.20
2023-06-09T19:26:01.349Z,99678.60
2023-06-09T19:28:28.467Z,99672.40
2023-06-09T19:30:55.798Z,99675.40
2023-06-09T19:33:23.005Z,99672.80
2023-06-09T19:35:50.210Z,99671.80
2023-06-09T19:38:17.470Z,99670.80
2023-06-09T19:40:45.106Z,99669.60
2023-06-09T19:43:12.787Z,99672.00
2023-06-09T19:45:39.787Z,99668.20
2023-06-09T19:48:07.012Z,99673.00
2023-06-09T19:50:35.956Z,99666.60
2023-06-09T19:53:04.703Z,99669.00
2023-06-09T19:55:32.518Z,99664.80
2023-06-09T19:57:59.829Z,99663.00
2023-06-09T20:00:27.199Z,99662.80
2023-06-09T20:02:54.449Z,99658.20
2023-06-09T20:05:21.734Z,99656.40
2023-06-09T20:07:48.905Z,99655.20
2023-06-09T20:10:18.867Z,99652.80
2023-06-09T20:12:46.234Z,99654.40
2023-06-09T20:15:13.584Z,99651.60
2023-06-09T20:17:40.745Z,99650.40
2023-06-09T20:20:09.161Z,99649.00
2023-06-09T20:22:36.698Z,99647.20
2023-06-09T20:25:04.546Z,99648.60
2023-06-09T20:27:31.919Z,99650.20
2023-06-09T20:29:59.717Z,99650.20
2023-06-09T20:32:27.121Z,99648.40
2023-06-09T20:34:54.670Z,99646.40
2023-06-09T20:37:22.487Z,99646.60
2023-06-09T20:39:49.813Z,99647.80
2023-06-09T20:42:17.106Z,99647.60
2023-06-09T20:44:45.328Z,99650.40
2023-06-09T20:47:12.616Z,99652.40
2023-06-09T20:49:41.334Z,99652.20
2023-06-09T20:52:08.619Z,99653.20
2023-06-09T20:54:36.571Z,99648.60
2023-06-09T20:57:03.875Z,99650.00
2023-06-09T20:59:31.119Z,99648.40
2023-06-09T21:01:58.189Z,99648.00
2023-06-09T21:04:29.807Z,99648.20
2023-06-09T21:06:57.409Z,99653.20
2023-06-09T21:09:26.322Z,99653.40
2023-06-09T21:11:54.911Z,99654.60
2023-06-09T21:14:21.971Z,99654.20
2023-06-09T21:16:49.094Z,99659.00
2023-06-09T21:19:17.016Z,99671.00
2023-06-09T21:21:44.073Z,99674.80
2023-06-09T21:24:11.205Z,99668.60
2023-06-09T21:26:38.468Z,99665.80
2023-06-09T21:29:05.637Z,99662.00
2023-06-09T21:31:33.873Z,99659.40
2023-06-09T21:34:02.189Z,99657.40
2023-06-09T21:36:29.351Z,99655.00
2023-06-09T21:38:56.552Z,99655.20
2023-06-09T21:41:23.770Z,99653.20
2023-06-09T21:43:50.863Z,99647.00
2023-06-09T21:46:18.123Z,99651.00
2023-06-09T21:48:45.741Z,99645.40
2023-06-09T21:51:12.983Z,99644.40
2023-06-09T21:53:40.374Z,99642.20
2023-06-09T21:56:07.584Z,99645.20
2023-06-09T21:58:35.051Z,99647.60
2023-06-09T22:01:02.308Z,99642.20
2023-06-09T22:03:29.419Z,99641.80
2023-06-09T22:05:56.454Z,99640.60
2023-06-09T22:08:23.585Z,99643.80
2023-06-09T22:10:50.636Z,99640.40
2023-06-09T22:13:18.177Z,99641.40
2023-06-09T22:15:45.615Z,99639.80
2023-06-09T22:18:17.639Z,99641.20
2023-06-09T22:20:45.698Z,99634.40
2023-06-09T22:23:12.926Z,99636.80
2023-06-09T22:25:40.565Z,99636.40
2023-06-09T22:28:07.874Z,99634.00
2023-06-09T22:30:35.075Z,99631.80
2023-06-09T22:33:02.425Z,99632.20
2023-06-09T22:35:29.814Z,99630.60
2023-06-09T22:37:57.099Z,99626.80
2023-06-09T22:40:24.252Z,99628.20
2023-06-09T22:42:51.490Z,99622.00
2023-06-09T22:45:18.666Z,99622.40
2023-06-09T22:47:45.927Z,99613.40
2023-06-09T22:50:14.008Z,99614.00
2023-06-09T22:52:43.910Z,99614.20
2023-06-09T22:55:12.559Z,99615.80
2023-06-09T22:57:41.066Z,99615.80
2023-06-09T23:00:16.729Z,99609.60
2023-06-09T23:02:44.017Z,99609.60
2023-06-09T23:05:14.404Z,99612.20
2023-06-09T23:07:41.868Z,99604.60
2023-06-09T23:10:13.040Z,99604.40
2023-06-09T23:12:41.322Z,99610.20
2023-06-09T23:15:10.079Z,99605.80
2023-06-09T23:17:39.453Z,99610.60
2023-06-09T23:20:08.241Z,99612.20
2023-06-09T23:22:37.176Z,99616.20
2023-06-09T23:25:06.318Z,99617.80
2023-06-09T23:27:36.443Z,99619.40
2023-06-09T23:30:05.965Z,99622.60
2023-06-09T23:32:33.100Z,99618.60
2023-06-09T23:35:00.211Z,99617.00
2023-06-09T23:37:28.740Z,99617.00
2023-06-09T23:39:55.925Z,99615.80
2023-06-09T23:42:23.532Z,99611.60
2023-06-09T23:44:50.635Z,99607.80
2023-06-09T23:47:17.710Z,99609.20
2023-06-09T23:49:44.763Z,99605.00
2023-06-09T23:52:14.880Z,99602.60
2023-06-09T23:54:42.517Z,99607.20
2023-06-09T23:57:09.964Z,99604.40
2023-06-09T23:59:37.013Z,99604.40
